sensor_id;sensor_type;location;lat;lon;timestamp;pressure;altitude;pressure_sealevel;temperature;humidity
34566;BME280;20803;42.676;26.348;2023-12-20T00:00:37;99070.09;;;8.92;56.43
34566;BME280;20803;42.676;26.348;2023-12-20T00:03:03;99067.31;;;8.82;56.69
34566;BME280;20803;42.676;26.348;2023-12-20T00:05:29;99066.50;;;8.81;56.90
34566;BME280;20803;42.676;26.348;2023-12-20T00:07:57;99060.97;;;8.85;56.35
34566;BME280;20803;42.676;26.348;2023-12-20T00:10:22;99058.97;;;8.71;57.04
34566;BME280;20803;42.676;26.348;2023-12-20T00:12:48;99060.06;;;8.49;58.89
34566;BME280;20803;42.676;26.348;2023-12-20T00:15:13;99056.97;;;8.65;59.56
34566;BME280;20803;42.676;26.348;2023-12-20T00:17:39;99053.47;;;8.89;58.75
34566;BME280;20803;42.676;26.348;2023-12-20T00:20:05;99042.00;;;8.83;59.00
34566;BME280;20803;42.676;26.348;2023-12-20T00:22:31;99037.63;;;8.86;59.60
34566;BME280;20803;42.676;26.348;2023-12-20T00:24:57;99042.38;;;8.82;59.74
34566;BME280;20803;42.676;26.348;2023-12-20T00:27:22;99043.88;;;8.54;60.67
34566;BME280;20803;42.676;26.348;2023-12-20T00:29:48;99041.84;;;8.41;61.56
34566;BME280;20803;42.676;26.348;2023-12-20T00:32:15;99037.84;;;8.31;62.54
34566;BME280;20803;42.676;26.348;2023-12-20T00:34:42;99036.88;;;7.99;63.63
34566;BME280;20803;42.676;26.348;2023-12-20T00:37:07;99035.72;;;8.03;63.84
34566;BME280;20803;42.676;26.348;2023-12-20T00:39:33;99037.81;;;8.28;62.84
34566;BME280;20803;42.676;26.348;2023-12-20T00:41:58;99037.88;;;8.42;60.97
34566;BME280;20803;42.676;26.348;2023-12-20T00:44:24;99035.50;;;8.33;60.24
34566;BME280;20803;42.676;26.348;2023-12-20T00:46:49;99040.50;;;8.13;60.17
34566;BME280;20803;42.676;26.348;2023-12-20T00:49:15;99041.72;;;8.16;60.28
34566;BME280;20803;42.676;26.348;2023-12-20T00:51:40;99040.59;;;8.28;59.88
34566;BME280;20803;42.676;26.348;2023-12-20T00:54:06;99033.09;;;8.32;59.51
34566;BME280;20803;42.676;26.348;2023-12-20T00:56:31;99031.56;;;8.45;58.95
34566;BME280;20803;42.676;26.348;2023-12-20T00:58:57;99029.22;;;8.50;58.83
34566;BME280;20803;42.676;26.348;2023-12-20T01:01:22;99029.22;;;8.50;58.03
34566;BME280;20803;42.676;26.348;2023-12-20T01:03:48;99027.63;;;8.46;58.53
34566;BME280;20803;42.676;26.348;2023-12-20T01:06:16;99023.72;;;8.58;57.77
34566;BME280;20803;42.676;26.348;2023-12-20T01:08:42;99024.53;;;8.72;57.42
34566;BME280;20803;42.676;26.348;2023-12-20T01:11:07;99023.34;;;8.80;56.77
34566;BME280;20803;42.676;26.348;2023-12-20T01:13:33;99020.63;;;8.84;56.55
34566;BME280;20803;42.676;26.348;2023-12-20T01:15:58;99012.28;;;8.80;57.35
34566;BME280;20803;42.676;26.348;2023-12-20T01:18:24;99007.91;;;8.65;58.02
34566;BME280;20803;42.676;26.348;2023-12-20T01:20:49;98999.22;;;8.77;57.71
34566;BME280;20803;42.676;26.348;2023-12-20T01:23:15;98999.22;;;8.81;57.73
34566;BME280;20803;42.676;26.348;2023-12-20T01:25:40;98992.88;;;8.80;57.49
34566;BME280;20803;42.676;26.348;2023-12-20T01:28:06;98983.00;;;8.76;58.09
34566;BME280;20803;42.676;26.348;2023-12-20T01:30:32;98983.38;;;8.71;58.13
34566;BME280;20803;42.676;26.348;2023-12-20T01:32:59;98984.16;;;8.64;59.63
34566;BME280;20803;42.676;26.348;2023-12-20T01:35:25;98977.78;;;8.60;60.16
34566;BME280;20803;42.676;26.348;2023-12-20T01:37:50;98972.25;;;8.53;61.05
34566;BME280;20803;42.676;26.348;2023-12-20T01:40:16;98969.91;;;8.62;61.64
34566;BME280;20803;42.676;26.348;2023-12-20T01:42:41;98961.53;;;8.34;63.70
34566;BME280;20803;42.676;26.348;2023-12-20T01:45:08;98957.44;;;8.06;66.98
34566;BME280;20803;42.676;26.348;2023-12-20T01:47:34;98962.59;;;8.04;67.37
34566;BME280;20803;42.676;26.348;2023-12-20T01:49:59;98954.66;;;8.06;66.80
34566;BME280;20803;42.676;26.348;2023-12-20T01:52:25;98953.97;;;8.27;65.47
34566;BME280;20803;42.676;26.348;2023-12-20T01:54:51;98946.84;;;8.23;64.39
34566;BME280;20803;42.676;26.348;2023-12-20T01:57:17;98946.50;;;8.35;63.35
34566;BME280;20803;42.676;26.348;2023-12-20T01:59:43;98941.75;;;8.32;62.82
34566;BME280;20803;42.676;26.348;2023-12-20T02:02:11;98945.31;;;8.32;62.64
34566;BME280;20803;42.676;26.348;2023-12-20T02:04:37;98942.16;;;8.34;61.81
34566;BME280;20803;42.676;26.348;2023-12-20T02:07:03;98935.84;;;8.44;61.25
34566;BME280;20803;42.676;26.348;2023-12-20T02:09:29;98932.69;;;8.49;60.83
34566;BME280;20803;42.676;26.348;2023-12-20T02:11:55;98932.66;;;8.35;61.00
34566;BME280;20803;42.676;26.348;2023-12-20T02:14:21;98929.53;;;8.47;60.50
34566;BME280;20803;42.676;26.348;2023-12-20T02:16:46;98925.94;;;8.39;60.01
34566;BME280;20803;42.676;26.348;2023-12-20T02:19:15;98924.75;;;8.37;60.19
34566;BME280;20803;42.676;26.348;2023-12-20T02:21:41;98917.63;;;8.39;60.32
34566;BME280;20803;42.676;26.348;2023-12-20T02:24:06;98917.63;;;8.39;60.53
34566;BME280;20803;42.676;26.348;2023-12-20T02:26:33;98921.59;;;8.35;61.19
34566;BME280;20803;42.676;26.348;2023-12-20T02:28:59;98909.72;;;8.38;61.33
34566;BME280;20803;42.676;26.348;2023-12-20T02:31:25;98911.66;;;8.30;61.51
34566;BME280;20803;42.676;26.348;2023-12-20T02:33:50;98913.66;;;8.33;61.80
34566;BME280;20803;42.676;26.348;2023-12-20T02:36:16;98904.19;;;8.34;61.73
34566;BME280;20803;42.676;26.348;2023-12-20T02:38:41;98900.22;;;8.35;61.28
34566;BME280;20803;42.676;26.348;2023-12-20T02:41:07;98895.47;;;8.36;61.46
34566;BME280;20803;42.676;26.348;2023-12-20T02:43:32;98898.59;;;8.27;61.62
34566;BME280;20803;42.676;26.348;2023-12-20T02:45:58;98890.69;;;8.22;62.26
34566;BME280;20803;42.676;26.348;2023-12-20T02:48:23;98887.50;;;8.20;62.42
34566;BME280;20803;42.676;26.348;2023-12-20T02:50:49;98893.84;;;8.28;62.31
34566;BME280;20803;42.676;26.348;2023-12-20T02:53:14;98889.06;;;8.14;62.86
34566;BME280;20803;42.676;26.348;2023-12-20T02:55:40;98880.00;;;8.28;63.13
34566;BME280;20803;42.676;26.348;2023-12-20T02:58:06;98881.97;;;8.24;63.24
34566;BME280;20803;42.676;26.348;2023-12-20T03:00:31;98877.19;;;8.03;64.68
34566;BME280;20803;42.676;26.348;2023-12-20T03:02:56;98882.69;;;7.96;66.09
34566;BME280;20803;42.676;26.348;2023-12-20T03:05:22;98870.88;;;8.02;65.88
34566;BME280;20803;42.676;26.348;2023-12-20T03:07:47;98871.22;;;7.87;66.68
34566;BME280;20803;42.676;26.348;2023-12-20T03:10:13;98876.81;;;8.04;65.70
34566;BME280;20803;42.676;26.348;2023-12-20T03:12:38;98876.00;;;8.04;65.42
34566;BME280;20803;42.676;26.348;2023-12-20T03:15:04;98870.06;;;8.05;65.80
34566;BME280;20803;42.676;26.348;2023-12-20T03:17:30;98870.47;;;8.04;65.60
34566;BME280;20803;42.676;26.348;2023-12-20T03:19:55;98877.22;;;8.13;64.48
34566;BME280;20803;42.676;26.348;2023-12-20T03:22:21;98874.41;;;8.06;64.39
34566;BME280;20803;42.676;26.348;2023-12-20T03:24:46;98873.19;;;7.90;65.50
34566;BME280;20803;42.676;26.348;2023-12-20T03:27:11;98867.69;;;8.00;65.33
34566;BME280;20803;42.676;26.348;2023-12-20T03:29:37;98861.34;;;7.93;65.23
34566;BME280;20803;42.676;26.348;2023-12-20T03:32:03;98859.00;;;8.02;65.16
34566;BME280;20803;42.676;26.348;2023-12-20T03:34:28;98860.19;;;8.04;64.85
34566;BME280;20803;42.676;26.348;2023-12-20T03:36:54;98859.78;;;8.02;64.88
34566;BME280;20803;42.676;26.348;2023-12-20T03:39:20;98851.91;;;8.04;64.79
34566;BME280;20803;42.676;26.348;2023-12-20T03:41:45;98851.50;;;8.02;65.27
34566;BME280;20803;42.676;26.348;2023-12-20T03:44:10;98856.25;;;7.98;65.51
34566;BME280;20803;42.676;26.348;2023-12-20T03:46:36;98848.72;;;8.02;65.29
34566;BME280;20803;42.676;26.348;2023-12-20T03:49:01;98845.56;;;8.04;64.94
34566;BME280;20803;42.676;26.348;2023-12-20T03:51:27;98843.22;;;8.09;64.59
34566;BME280;20803;42.676;26.348;2023-12-20T03:53:52;98845.94;;;8.06;64.91
34566;BME280;20803;42.676;26.348;2023-12-20T03:56:18;98844.38;;;8.01;65.40
34566;BME280;20803;42.676;26.348;2023-12-20T03:58:43;98851.47;;;7.95;65.73
34566;BME280;20803;42.676;26.348;2023-12-20T04:01:10;98836.31;;;7.54;67.97
34566;BME280;20803;42.676;26.348;2023-12-20T04:03:39;98848.22;;;7.65;68.17
34566;BME280;20803;42.676;26.348;2023-12-20T04:06:05;98841.53;;;7.77;67.19
34566;BME280;20803;42.676;26.348;2023-12-20T04:08:31;98840.75;;;7.76;66.88
34566;BME280;20803;42.676;26.348;2023-12-20T04:10:56;98837.97;;;7.76;67.52
34566;BME280;20803;42.676;26.348;2023-12-20T04:13:22;98840.34;;;7.81;66.42
34566;BME280;20803;42.676;26.348;2023-12-20T04:15:47;98827.31;;;7.78;65.83
34566;BME280;20803;42.676;26.348;2023-12-20T04:18:15;98829.22;;;7.53;66.95
34566;BME280;20803;42.676;26.348;2023-12-20T04:20:40;98823.22;;;7.40;68.02
34566;BME280;20803;42.676;26.348;2023-12-20T04:23:06;98824.44;;;7.43;68.07
34566;BME280;20803;42.676;26.348;2023-12-20T04:25:31;98822.50;;;7.57;67.20
34566;BME280;20803;42.676;26.348;2023-12-20T04:27:57;98818.59;;;7.62;66.35
34566;BME280;20803;42.676;26.348;2023-12-20T04:30:22;98815.81;;;7.65;66.09
34566;BME280;20803;42.676;26.348;2023-12-20T04:32:48;98822.09;;;7.48;66.70
34566;BME280;20803;42.676;26.348;2023-12-20T04:35:13;98816.53;;;7.38;68.09
34566;BME280;20803;42.676;26.348;2023-12-20T04:37:39;98811.38;;;7.40;68.20
34566;BME280;20803;42.676;26.348;2023-12-20T04:40:05;98807.06;;;7.46;68.25
34566;BME280;20803;42.676;26.348;2023-12-20T04:42:31;98810.28;;;7.62;67.56
34566;BME280;20803;42.676;26.348;2023-12-20T04:44:56;98802.34;;;7.57;67.42
34566;BME280;20803;42.676;26.348;2023-12-20T04:47:22;98803.53;;;7.49;67.99
34566;BME280;20803;42.676;26.348;2023-12-20T04:49:47;98802.75;;;7.55;68.03
34566;BME280;20803;42.676;26.348;2023-12-20T04:52:13;98806.66;;;7.51;67.85
34566;BME280;20803;42.676;26.348;2023-12-20T04:54:39;98815.75;;;7.51;68.24
34566;BME280;20803;42.676;26.348;2023-12-20T04:57:05;98805.47;;;7.45;68.17
34566;BME280;20803;42.676;26.348;2023-12-20T04:59:30;98801.91;;;7.37;67.85
34566;BME280;20803;42.676;26.348;2023-12-20T05:01:56;98793.19;;;7.35;68.54
34566;BME280;20803;42.676;26.348;2023-12-20T05:04:22;98795.16;;;7.34;68.11
34566;BME280;20803;42.676;26.348;2023-12-20T05:06:48;98797.91;;;7.27;68.73
34566;BME280;20803;42.676;26.348;2023-12-20T05:09:15;98795.50;;;7.22;68.94
34566;BME280;20803;42.676;26.348;2023-12-20T05:11:40;98793.13;;;7.17;69.02
34566;BME280;20803;42.676;26.348;2023-12-20T05:14:06;98798.66;;;7.17;69.13
34566;BME280;20803;42.676;26.348;2023-12-20T05:16:32;98797.84;;;7.17;69.69
34566;BME280;20803;42.676;26.348;2023-12-20T05:18:58;98796.31;;;7.19;69.73
34566;BME280;20803;42.676;26.348;2023-12-20T05:21:26;98800.22;;;7.15;70.04
34566;BME280;20803;42.676;26.348;2023-12-20T05:23:51;98790.38;;;7.21;70.42
34566;BME280;20803;42.676;26.348;2023-12-20T05:26:17;98780.09;;;7.21;69.94
34566;BME280;20803;42.676;26.348;2023-12-20T05:28:42;98790.38;;;7.17;69.38
34566;BME280;20803;42.676;26.348;2023-12-20T05:31:08;98789.19;;;7.18;69.34
34566;BME280;20803;42.676;26.348;2023-12-20T05:33:34;98790.38;;;7.17;69.73
34566;BME280;20803;42.676;26.348;2023-12-20T05:35:59;98787.59;;;7.17;69.67
34566;BME280;20803;42.676;26.348;2023-12-20T05:38:25;98781.69;;;7.19;69.66
34566;BME280;20803;42.676;26.348;2023-12-20T05:40:51;98786.00;;;7.16;70.58
34566;BME280;20803;42.676;26.348;2023-12-20T05:43:16;98778.13;;;7.22;70.16
34566;BME280;20803;42.676;26.348;2023-12-20T05:45:42;98772.66;;;7.32;69.64
34566;BME280;20803;42.676;26.348;2023-12-20T05:48:07;98773.84;;;7.35;69.59
34566;BME280;20803;42.676;26.348;2023-12-20T05:50:33;98782.22;;;7.60;69.18
34566;BME280;20803;42.676;26.348;2023-12-20T05:53:00;98778.72;;;7.84;67.13
34566;BME280;20803;42.676;26.348;2023-12-20T05:55:25;98778.38;;;8.10;65.77
34566;BME280;20803;42.676;26.348;2023-12-20T05:57:51;98772.88;;;8.39;63.88
34566;BME280;20803;42.676;26.348;2023-12-20T06:00:17;98777.59;;;8.70;61.79
34566;BME280;20803;42.676;26.348;2023-12-20T06:02:43;98760.88;;;8.99;59.83
34566;BME280;20803;42.676;26.348;2023-12-20T06:05:08;98769.88;;;9.34;57.92
34566;BME280;20803;42.676;26.348;2023-12-20T06:07:34;98762.94;;;9.71;56.26
34566;BME280;20803;42.676;26.348;2023-12-20T06:09:59;98760.31;;;10.08;54.60
34566;BME280;20803;42.676;26.348;2023-12-20T06:12:25;98752.50;;;10.44;53.49
34566;BME280;20803;42.676;26.348;2023-12-20T06:14:52;98753.75;;;10.81;52.48
34566;BME280;20803;42.676;26.348;2023-12-20T06:17:17;98751.50;;;11.06;51.18
34566;BME280;20803;42.676;26.348;2023-12-20T06:19:43;98749.19;;;11.31;50.57
34566;BME280;20803;42.676;26.348;2023-12-20T06:22:10;98752.00;;;11.62;49.83
34566;BME280;20803;42.676;26.348;2023-12-20T06:24:36;98755.66;;;11.86;49.01
34566;BME280;20803;42.676;26.348;2023-12-20T06:27:01;98744.56;;;12.09;48.53
34566;BME280;20803;42.676;26.348;2023-12-20T06:29:27;98745.63;;;12.18;48.19
34566;BME280;20803;42.676;26.348;2023-12-20T06:31:53;98742.97;;;12.35;47.79
34566;BME280;20803;42.676;26.348;2023-12-20T06:34:18;98747.13;;;12.46;47.45
34566;BME280;20803;42.676;26.348;2023-12-20T06:36:44;98754.78;;;12.42;47.34
34566;BME280;20803;42.676;26.348;2023-12-20T06:39:10;98750.94;;;12.33;47.44
34566;BME280;20803;42.676;26.348;2023-12-20T06:41:38;98744.72;;;12.25;47.72
34566;BME280;20803;42.676;26.348;2023-12-20T06:44:03;98739.28;;;12.14;47.92
34566;BME280;20803;42.676;26.348;2023-12-20T06:46:29;98739.38;;;12.11;47.97
34566;BME280;20803;42.676;26.348;2023-12-20T06:48:54;98731.06;;;12.07;48.23
34566;BME280;20803;42.676;26.348;2023-12-20T06:51:20;98729.13;;;12.04;48.44
34566;BME280;20803;42.676;26.348;2023-12-20T06:53:46;98721.66;;;11.98;48.44
34566;BME280;20803;42.676;26.348;2023-12-20T06:56:11;98728.88;;;11.95;48.67
34566;BME280;20803;42.676;26.348;2023-12-20T06:58:41;98729.09;;;11.81;48.79
34566;BME280;20803;42.676;26.348;2023-12-20T07:01:11;98727.63;;;11.69;49.63
34566;BME280;20803;42.676;26.348;2023-12-20T07:03:37;98726.00;;;11.75;50.90
34566;BME280;20803;42.676;26.348;2023-12-20T07:06:02;98720.31;;;11.83;50.60
34566;BME280;20803;42.676;26.348;2023-12-20T07:08:28;98725.03;;;11.86;50.24
34566;BME280;20803;42.676;26.348;2023-12-20T07:10:54;98725.00;;;11.89;50.52
34566;BME280;20803;42.676;26.348;2023-12-20T07:13:20;98724.28;;;12.08;52.58
34566;BME280;20803;42.676;26.348;2023-12-20T07:15:47;98711.69;;;12.24;52.47
34566;BME280;20803;42.676;26.348;2023-12-20T07:18:12;98717.38;;;12.40;52.56
34566;BME280;20803;42.676;26.348;2023-12-20T07:20:38;98708.38;;;12.55;51.27
34566;BME280;20803;42.676;26.348;2023-12-20T07:23:04;98715.31;;;12.67;51.29
34566;BME280;20803;42.676;26.348;2023-12-20T07:25:30;98709.44;;;12.81;50.44
34566;BME280;20803;42.676;26.348;2023-12-20T07:27:58;98717.56;;;12.95;49.33
34566;BME280;20803;42.676;26.348;2023-12-20T07:30:23;98710.63;;;13.04;49.02
34566;BME280;20803;42.676;26.348;2023-12-20T07:32:49;98713.22;;;13.14;48.16
34566;BME280;20803;42.676;26.348;2023-12-20T07:35:16;98705.09;;;13.23;47.27
34566;BME280;20803;42.676;26.348;2023-12-20T07:37:41;98708.16;;;13.29;47.45
34566;BME280;20803;42.676;26.348;2023-12-20T07:40:08;98708.72;;;13.20;47.77
34566;BME280;20803;42.676;26.348;2023-12-20T07:42:33;98708.03;;;13.16;48.67
34566;BME280;20803;42.676;26.348;2023-12-20T07:45:01;98707.75;;;12.87;50.41
34566;BME280;20803;42.676;26.348;2023-12-20T07:47:27;98702.38;;;12.77;51.30
34566;BME280;20803;42.676;26.348;2023-12-20T07:49:52;98699.38;;;12.87;51.47
34566;BME280;20803;42.676;26.348;2023-12-20T07:52:18;98708.47;;;12.91;51.26
34566;BME280;20803;42.676;26.348;2023-12-20T07:54:45;98711.53;;;12.77;51.86
34566;BME280;20803;42.676;26.348;2023-12-20T07:57:11;98709.28;;;12.69;52.28
34566;BME280;20803;42.676;26.348;2023-12-20T07:59:36;98705.91;;;12.57;52.33
34566;BME280;20803;42.676;26.348;2023-12-20T08:02:02;98711.00;;;12.63;52.46
34566;BME280;20803;42.676;26.348;2023-12-20T08:04:27;98706.44;;;12.72;52.35
34566;BME280;20803;42.676;26.348;2023-12-20T08:06:53;98714.19;;;12.84;52.06
34566;BME280;20803;42.676;26.348;2023-12-20T08:09:18;98706.09;;;12.70;52.20
34566;BME280;20803;42.676;26.348;2023-12-20T08:11:48;98712.53;;;12.67;51.90
34566;BME280;20803;42.676;26.348;2023-12-20T08:14:13;98705.13;;;12.80;51.28
34566;BME280;20803;42.676;26.348;2023-12-20T08:16:39;98701.69;;;12.92;51.27
34566;BME280;20803;42.676;26.348;2023-12-20T08:19:04;98701.63;;;12.96;51.32
34566;BME280;20803;42.676;26.348;2023-12-20T08:21:30;98698.75;;;12.99;51.59
34566;BME280;20803;42.676;26.348;2023-12-20T08:23:55;98699.97;;;13.18;51.03
34566;BME280;20803;42.676;26.348;2023-12-20T08:26:21;98692.97;;;13.30;50.44
34566;BME280;20803;42.676;26.348;2023-12-20T08:28:49;98686.91;;;13.35;50.53
34566;BME280;20803;42.676;26.348;2023-12-20T08:31:16;98686.72;;;13.42;50.44
34566;BME280;20803;42.676;26.348;2023-12-20T08:33:45;98682.41;;;13.57;50.09
34566;BME280;20803;42.676;26.348;2023-12-20T08:36:12;98678.31;;;13.62;50.19
34566;BME280;20803;42.676;26.348;2023-12-20T08:38:38;98668.03;;;13.75;49.77
34566;BME280;20803;42.676;26.348;2023-12-20T08:41:03;98667.53;;;13.96;49.69
34566;BME280;20803;42.676;26.348;2023-12-20T08:43:39;98661.94;;;14.12;48.60
34566;BME280;20803;42.676;26.348;2023-12-20T08:46:07;98646.09;;;14.22;48.21
34566;BME280;20803;42.676;26.348;2023-12-20T08:48:35;98644.59;;;14.34;48.08
34566;BME280;20803;42.676;26.348;2023-12-20T08:51:00;98631.06;;;14.48;47.88
34566;BME280;20803;42.676;26.348;2023-12-20T08:53:26;98629.31;;;14.54;47.58
34566;BME280;20803;42.676;26.348;2023-12-20T08:55:52;98623.53;;;14.61;47.42
34566;BME280;20803;42.676;26.348;2023-12-20T08:58:17;98616.84;;;14.72;47.27
34566;BME280;20803;42.676;26.348;2023-12-20T09:00:43;98610.31;;;15.03;46.79
34566;BME280;20803;42.676;26.348;2023-12-20T09:03:09;98604.28;;;15.05;46.84
34566;BME280;20803;42.676;26.348;2023-12-20T09:05:34;98595.56;;;15.16;46.36
34566;BME280;20803;42.676;26.348;2023-12-20T09:08:00;98588.16;;;15.09;46.29
34566;BME280;20803;42.676;26.348;2023-12-20T09:10:25;98589.06;;;15.06;46.35
34566;BME280;20803;42.676;26.348;2023-12-20T09:12:52;98583.75;;;14.95;46.65
34566;BME280;20803;42.676;26.348;2023-12-20T09:15:26;98584.31;;;14.90;47.05
34566;BME280;20803;42.676;26.348;2023-12-20T09:17:52;98579.19;;;15.01;47.13
34566;BME280;20803;42.676;26.348;2023-12-20T09:20:17;98579.19;;;15.01;46.81
34566;BME280;20803;42.676;26.348;2023-12-20T09:22:43;98573.22;;;14.74;47.40
34566;BME280;20803;42.676;26.348;2023-12-20T09:25:10;98572.00;;;14.75;48.35
34566;BME280;20803;42.676;26.348;2023-12-20T09:27:36;98568.22;;;15.07;47.34
34566;BME280;20803;42.676;26.348;2023-12-20T09:30:02;98553.44;;;15.19;46.83
34566;BME280;20803;42.676;26.348;2023-12-20T09:32:29;98551.44;;;15.32;46.47
34566;BME280;20803;42.676;26.348;2023-12-20T09:34:55;98551.88;;;15.43;46.68
34566;BME280;20803;42.676;26.348;2023-12-20T09:37:20;98546.41;;;15.27;46.49
34566;BME280;20803;42.676;26.348;2023-12-20T09:39:46;98544.06;;;15.26;47.56
34566;BME280;20803;42.676;26.348;2023-12-20T09:42:12;98537.66;;;15.51;47.21
34566;BME280;20803;42.676;26.348;2023-12-20T09:44:42;98527.00;;;15.83;46.45
34566;BME280;20803;42.676;26.348;2023-12-20T09:47:09;98529.63;;;16.34;45.54
34566;BME280;20803;42.676;26.348;2023-12-20T09:49:35;98525.59;;;16.01;45.78
34566;BME280;20803;42.676;26.348;2023-12-20T09:52:04;98517.47;;;16.15;45.18
34566;BME280;20803;42.676;26.348;2023-12-20T09:54:33;98518.84;;;16.54;44.46
34566;BME280;20803;42.676;26.348;2023-12-20T09:56:58;98517.31;;;16.41;45.05
34566;BME280;20803;42.676;26.348;2023-12-20T09:59:24;98511.31;;;16.64;44.44
34566;BME280;20803;42.676;26.348;2023-12-20T10:01:50;98499.66;;;16.75;44.35
34566;BME280;20803;42.676;26.348;2023-12-20T10:04:17;98506.19;;;17.02;43.81
34566;BME280;20803;42.676;26.348;2023-12-20T10:06:43;98496.44;;;17.16;43.59
34566;BME280;20803;42.676;26.348;2023-12-20T10:09:12;98492.03;;;17.06;43.21
34566;BME280;20803;42.676;26.348;2023-12-20T10:11:38;98492.53;;;17.14;43.32
34566;BME280;20803;42.676;26.348;2023-12-20T10:14:04;98491.16;;;17.18;43.24
34566;BME280;20803;42.676;26.348;2023-12-20T10:16:30;98488.00;;;17.07;43.84
34566;BME280;20803;42.676;26.348;2023-12-20T10:18:56;98487.69;;;16.83;44.21
34566;BME280;20803;42.676;26.348;2023-12-20T10:21:22;98479.69;;;16.73;44.01
34566;BME280;20803;42.676;26.348;2023-12-20T10:23:48;98476.63;;;16.80;43.89
34566;BME280;20803;42.676;26.348;2023-12-20T10:26:22;98464.16;;;16.81;43.87
34566;BME280;20803;42.676;26.348;2023-12-20T10:28:56;98461.38;;;16.90;44.61
34566;BME280;20803;42.676;26.348;2023-12-20T10:31:30;98464.03;;;17.24;44.00
34566;BME280;20803;42.676;26.348;2023-12-20T10:33:57;98447.59;;;17.72;43.31
34566;BME280;20803;42.676;26.348;2023-12-20T10:36:23;98438.06;;;17.88;42.67
34566;BME280;20803;42.676;26.348;2023-12-20T10:38:50;98439.00;;;18.03;42.36
34566;BME280;20803;42.676;26.348;2023-12-20T10:41:16;98437.56;;;18.35;41.46
34566;BME280;20803;42.676;26.348;2023-12-20T10:43:45;98431.44;;;18.45;41.20
34566;BME280;20803;42.676;26.348;2023-12-20T10:46:11;98425.66;;;18.58;40.96
34566;BME280;20803;42.676;26.348;2023-12-20T10:48:39;98419.88;;;18.43;41.00
34566;BME280;20803;42.676;26.348;2023-12-20T10:51:05;98413.66;;;18.30;41.26
34566;BME280;20803;42.676;26.348;2023-12-20T10:53:32;98417.03;;;18.61;40.24
34566;BME280;20803;42.676;26.348;2023-12-20T10:56:00;98409.50;;;18.77;40.02
34566;BME280;20803;42.676;26.348;2023-12-20T10:58:29;98410.31;;;19.01;39.64
34566;BME280;20803;42.676;26.348;2023-12-20T11:01:01;98405.31;;;19.29;38.71
34566;BME280;20803;42.676;26.348;2023-12-20T11:03:27;98406.34;;;18.84;39.04
34566;BME280;20803;42.676;26.348;2023-12-20T11:05:59;98398.34;;;18.31;39.96
34566;BME280;20803;42.676;26.348;2023-12-20T11:08:45;98397.72;;;18.27;39.59
34566;BME280;20803;42.676;26.348;2023-12-20T11:11:18;98396.19;;;18.08;40.39
34566;BME280;20803;42.676;26.348;2023-12-20T11:13:54;98397.16;;;17.87;41.21
34566;BME280;20803;42.676;26.348;2023-12-20T11:16:22;98388.81;;;18.19;41.15
34566;BME280;20803;42.676;26.348;2023-12-20T11:18:50;98386.38;;;18.54;40.58
34566;BME280;20803;42.676;26.348;2023-12-20T11:21:18;98385.81;;;18.41;41.02
34566;BME280;20803;42.676;26.348;2023-12-20T11:23:45;98383.19;;;18.80;40.41
34566;BME280;20803;42.676;26.348;2023-12-20T11:26:10;98382.34;;;18.55;39.94
34566;BME280;20803;42.676;26.348;2023-12-20T11:28:36;98379.84;;;18.48;39.67
34566;BME280;20803;42.676;26.348;2023-12-20T11:31:02;98380.81;;;18.36;40.40
34566;BME280;20803;42.676;26.348;2023-12-20T11:33:37;98379.03;;;17.97;41.03
34566;BME280;20803;42.676;26.348;2023-12-20T11:36:06;98367.72;;;18.24;40.59
34566;BME280;20803;42.676;26.348;2023-12-20T11:38:38;98360.28;;;18.03;40.68
34566;BME280;20803;42.676;26.348;2023-12-20T11:41:06;98351.53;;;18.01;40.93
34566;BME280;20803;42.676;26.348;2023-12-20T11:43:38;98347.19;;;17.91;40.30
34566;BME280;20803;42.676;26.348;2023-12-20T11:46:08;98334.81;;;17.15;42.27
34566;BME280;20803;42.676;26.348;2023-12-20T11:48:39;98326.53;;;17.21;42.06
34566;BME280;20803;42.676;26.348;2023-12-20T11:51:12;98319.06;;;17.54;41.43
34566;BME280;20803;42.676;26.348;2023-12-20T11:53:38;98312.22;;;17.73;41.05
34566;BME280;20803;42.676;26.348;2023-12-20T11:56:06;98312.50;;;17.75;40.51
34566;BME280;20803;42.676;26.348;2023-12-20T11:58:32;98312.41;;;17.61;40.76
34566;BME280;20803;42.676;26.348;2023-12-20T12:00:58;98314.84;;;17.40;40.72
34566;BME280;20803;42.676;26.348;2023-12-20T12:03:23;98303.50;;;17.62;40.52
34566;BME280;20803;42.676;26.348;2023-12-20T12:05:49;98304.53;;;17.92;40.44
34566;BME280;20803;42.676;26.348;2023-12-20T12:08:16;98295.28;;;18.43;39.79
34566;BME280;20803;42.676;26.348;2023-12-20T12:10:43;98292.28;;;18.13;39.91
34566;BME280;20803;42.676;26.348;2023-12-20T12:13:09;98286.91;;;18.34;39.75
34566;BME280;20803;42.676;26.348;2023-12-20T12:15:35;98286.19;;;18.15;39.62
34566;BME280;20803;42.676;26.348;2023-12-20T12:18:01;98290.03;;;17.84;40.04
34566;BME280;20803;42.676;26.348;2023-12-20T12:20:27;98294.22;;;17.89;40.36
34566;BME280;20803;42.676;26.348;2023-12-20T12:23:00;98285.78;;;17.89;40.72
34566;BME280;20803;42.676;26.348;2023-12-20T12:25:26;98279.88;;;17.69;41.20
34566;BME280;20803;42.676;26.348;2023-12-20T12:27:52;98279.13;;;17.50;41.39
34566;BME280;20803;42.676;26.348;2023-12-20T12:30:17;98272.09;;;17.73;41.06
34566;BME280;20803;42.676;26.348;2023-12-20T12:32:46;98274.63;;;18.13;40.32
34566;BME280;20803;42.676;26.348;2023-12-20T12:35:12;98274.03;;;18.09;40.25
34566;BME280;20803;42.676;26.348;2023-12-20T12:37:38;98256.53;;;18.47;39.61
34566;BME280;20803;42.676;26.348;2023-12-20T12:40:10;98259.34;;;18.47;39.63
34566;BME280;20803;42.676;26.348;2023-12-20T12:42:40;98265.00;;;18.38;39.67
34566;BME280;20803;42.676;26.348;2023-12-20T12:45:07;98255.09;;;18.51;39.69
34566;BME280;20803;42.676;26.348;2023-12-20T12:47:33;98249.38;;;18.70;39.50
34566;BME280;20803;42.676;26.348;2023-12-20T12:49:59;98242.38;;;18.89;39.34